createdAt,value
2022-12-18T00:01:34.381Z,17.17
2022-12-18T00:04:03.139Z,20.70
2022-12-18T00:06:30.701Z,18.92
2022-12-18T00:08:58.731Z,24.27
2022-12-18T00:11:29.412Z,25.60
2022-12-18T00:13:57.710Z,25.63
2022-12-18T00:16:26.723Z,25.38
2022-12-18T00:18:56.237Z,21.30
2022-12-18T00:21:23.380Z,23.13
2022-12-18T00:23:54.522Z,18.38
2022-12-18T00:26:25.501Z,19.98
2022-12-18T00:28:56.576Z,21.45
2022-12-18T00:31:24.796Z,21.42
2022-12-18T00:33:53.974Z,22.75
2022-12-18T00:36:24.783Z,21.45
2022-12-18T00:38:51.739Z,24.23
2022-12-18T00:41:39.425Z,21.20
2022-12-18T00:44:07.621Z,21.60
2022-12-18T00:46:34.709Z,18.20
2022-12-18T00:49:01.419Z,21.33
2022-12-18T00:51:27.944Z,17.90
2022-12-18T00:53:55.969Z,15.50
2022-12-18T00:56:22.987Z,12.18
2022-12-18T00:58:49.462Z,9.77
2022-12-18T01:01:16.584Z,12.63
2022-12-18T01:03:47.628Z,14.90
2022-12-18T01:06:17.697Z,12.32
2022-12-18T01:08:44.749Z,10.68
2022-12-18T01:11:16.870Z,14.77
2022-12-18T01:13:43.915Z,7.90
2022-12-18T01:16:16.948Z,11.25
2022-12-18T01:18:43.503Z,8.90
2022-12-18T01:21:12.957Z,9.15
2022-12-18T01:23:41.575Z,12.80
2022-12-18T01:26:16.076Z,9.32
2022-12-18T01:28:44.750Z,7.97
2022-12-18T01:31:22.608Z,9.27
2022-12-18T01:33:49.633Z,10.77
2022-12-18T01:36:37.134Z,9.55
2022-12-18T01:39:14.032Z,8.60
2022-12-18T01:41:59.924Z,10.07
2022-12-18T01:45:03.825Z,7.43
2022-12-18T01:47:47.783Z,10.20
2022-12-18T01:50:18.871Z,12.05
2022-12-18T01:53:16.790Z,12.10
2022-12-18T01:55:49.415Z,10.48
2022-12-18T01:58:16.537Z,11.68
2022-12-18T02:00:43.187Z,12.77
2022-12-18T02:03:13.102Z,11.60
2022-12-18T02:05:52.076Z,14.48
2022-12-18T02:08:34.859Z,7.50
2022-12-18T02:11:16.530Z,10.30
2022-12-18T02:14:29.028Z,10.70
2022-12-18T02:17:01.406Z,11.13
2022-12-18T02:19:33.786Z,12.50
2022-12-18T02:22:15.559Z,10.15
2022-12-18T02:24:56.083Z,9.75
2022-12-18T02:27:22.753Z,8.77
2022-12-18T02:29:58.214Z,13.32
2022-12-18T02:32:32.714Z,8.98
2022-12-18T02:35:01.776Z,9.07
2022-12-18T02:37:30.604Z,9.15
2022-12-18T02:40:02.692Z,11.02
2022-12-18T02:42:29.278Z,12.50
2022-12-18T02:44:55.800Z,12.40
2022-12-18T02:47:27.026Z,9.15
2022-12-18T02:50:19.947Z,12.10
2022-12-18T02:53:04.845Z,9.85
2022-12-18T02:55:55.292Z,9.60
2022-12-18T02:58:25.584Z,9.00
2022-12-18T03:01:25.323Z,9.70
2022-12-18T03:04:15.438Z,9.73
2022-12-18T03:06:49.183Z,10.20
2022-12-18T03:09:25.792Z,9.05
2022-12-18T03:12:24.415Z,8.18
2022-12-18T03:15:01.747Z,12.38
2022-12-18T03:17:31.621Z,11.30
2022-12-18T03:20:03.306Z,11.38
2022-12-18T03:25:01.561Z,7.75
2022-12-18T03:27:30.695Z,10.55
2022-12-18T03:30:08.541Z,11.23
2022-12-18T03:33:09.891Z,9.50
2022-12-18T03:35:42.806Z,10.85
2022-12-18T03:38:13.970Z,11.73
2022-12-18T03:40:58.065Z,12.07
2022-12-18T03:43:27.477Z,12.05
2022-12-18T03:46:03.554Z,8.77
2022-12-18T03:48:40.150Z,8.00
2022-12-18T03:51:16.172Z,11.52
2022-12-18T03:53:59.299Z,14.43
2022-12-18T03:56:30.552Z,8.43
2022-12-18T03:58:58.919Z,7.25
2022-12-18T04:01:32.941Z,6.90
2022-12-18T04:04:05.472Z,7.97
2022-12-18T04:06:33.167Z,9.88
2022-12-18T04:09:00.118Z,7.05
2022-12-18T04:11:26.866Z,8.65
2022-12-18T04:13:58.532Z,7.60
2022-12-18T04:18:51.949Z,6.47
2022-12-18T04:21:18.465Z,5.65
2022-12-18T04:23:44.897Z,6.53
2022-12-18T04:26:11.408Z,6.75
2022-12-18T04:28:37.952Z,7.53
2022-12-18T04:31:04.581Z,5.10
2022-12-18T04:33:31.087Z,4.32
2022-12-18T04:35:57.642Z,7.50
2022-12-18T04:38:24.069Z,5.85
2022-12-18T04:40:50.506Z,4.05
2022-12-18T04:43:17.145Z,7.70
2022-12-18T04:45:43.708Z,5.80
2022-12-18T04:48:10.315Z,6.30
2022-12-18T04:50:37.477Z,7.25
2022-12-18T04:53:04.074Z,5.18
2022-12-18T04:55:33.642Z,4.47
2022-12-18T04:58:00.153Z,10.52
2022-12-18T05:00:26.586Z,5.68
2022-12-18T05:02:53.501Z,4.97
2022-12-18T05:05:20.066Z,4.45
2022-12-18T05:07:46.643Z,6.43
2022-12-18T05:10:13.175Z,5.35
2022-12-18T05:12:58.945Z,6.85
2022-12-18T05:15:33.179Z,4.97
2022-12-18T05:18:00.537Z,4.82
2022-12-18T05:20:28.160Z,10.32
2022-12-18T05:22:55.603Z,5.43
2022-12-18T05:25:23.128Z,7.50
2022-12-18T05:27:49.771Z,10.57
2022-12-18T05:30:17.370Z,9.35
2022-12-18T05:32:44.211Z,10.27
2022-12-18T05:35:11.720Z,9.13
2022-12-18T05:37:42.903Z,7.60
2022-12-18T05:40:10.961Z,5.88
2022-12-18T05:42:37.561Z,7.63
2022-12-18T05:45:07.718Z,5.72
2022-12-18T05:47:34.975Z,5.50
2022-12-18T05:50:01.406Z,5.57
2022-12-18T05:52:27.976Z,7.30
2022-12-18T05:54:54.526Z,7.10
2022-12-18T05:57:20.976Z,7.78
2022-12-18T05:59:47.503Z,4.63
2022-12-18T06:02:14.076Z,5.50
2022-12-18T06:04:40.728Z,6.28
2022-12-18T06:07:07.198Z,12.25
2022-12-18T06:09:33.644Z,21.75
2022-12-18T06:12:00.139Z,16.58
2022-12-18T06:14:26.739Z,17.10
2022-12-18T06:16:53.358Z,13.60
2022-12-18T06:19:19.897Z,19.55
2022-12-18T06:21:46.764Z,14.82
2022-12-18T06:24:13.375Z,11.40
2022-12-18T06:26:40.388Z,10.52
2022-12-18T06:29:06.991Z,16.65
2022-12-18T06:31:33.941Z,13.98
2022-12-18T06:34:03.533Z,14.80
2022-12-18T06:36:30.499Z,15.77
2022-12-18T06:38:57.321Z,12.98
2022-12-18T06:41:24.113Z,15.35
2022-12-18T06:43:52.191Z,15.43
2022-12-18T06:46:21.200Z,9.07
2022-12-18T06:48:49.828Z,9.85
2022-12-18T06:51:20.808Z,12.93
2022-12-18T06:53:47.512Z,10.57
2022-12-18T06:56:13.969Z,16.77
2022-12-18T06:58:40.547Z,11.88
2022-12-18T07:01:09.499Z,12.05
2022-12-18T07:03:36.437Z,10.00
2022-12-18T07:06:03.350Z,11.30
2022-12-18T07:08:31.238Z,15.20
2022-12-18T07:10:57.709Z,18.88
2022-12-18T07:13:24.423Z,23.10
2022-12-18T07:15:51.036Z,30.98
2022-12-18T07:18:17.513Z,39.28
2022-12-18T07:20:43.956Z,41.35
2022-12-18T07:23:10.490Z,35.20
2022-12-18T07:25:37.954Z,39.97
2022-12-18T07:28:04.822Z,28.75
2022-12-18T07:30:31.415Z,43.20
2022-12-18T07:32:57.880Z,36.33
2022-12-18T07:35:25.329Z,32.35
2022-12-18T07:37:52.098Z,30.05
2022-12-18T07:40:18.631Z,81.28
2022-12-18T07:42:48.071Z,70.82
2022-12-18T07:45:14.544Z,49.03
2022-12-18T07:47:42.265Z,44.33
2022-12-18T07:50:09.145Z,41.33
2022-12-18T07:52:35.592Z,55.00
2022-12-18T07:55:02.156Z,68.18
2022-12-18T07:57:49.361Z,47.58
2022-12-18T08:00:15.600Z,39.20
2022-12-18T08:02:42.275Z,36.53
2022-12-18T08:05:11.944Z,35.15
2022-12-18T08:07:41.218Z,32.78
2022-12-18T08:10:08.271Z,34.50
2022-12-18T08:12:34.785Z,22.73
2022-12-18T08:15:01.576Z,26.10
2022-12-18T08:17:31.314Z,26.20
2022-12-18T08:19:57.800Z,26.85
2022-12-18T08:22:24.460Z,19.70
2022-12-18T08:24:50.989Z,17.95
2022-12-18T08:27:32.775Z,18.42
2022-12-18T08:29:59.478Z,19.23
2022-12-18T08:32:27.286Z,19.33
2022-12-18T08:34:53.772Z,16.05
2022-12-18T08:37:20.739Z,15.00
2022-12-18T08:39:47.269Z,17.20
2022-12-18T08:42:32.234Z,20.38
2022-12-18T08:44:58.676Z,19.02
2022-12-18T08:47:26.898Z,19.90
2022-12-18T08:49:53.342Z,19.20
2022-12-18T08:52:19.852Z,19.70
2022-12-18T08:54:46.338Z,21.35
2022-12-18T08:57:12.904Z,23.73
2022-12-18T08:59:39.361Z,21.35
2022-12-18T09:02:06.089Z,13.57
2022-12-18T09:04:32.702Z,17.77
2022-12-18T09:06:59.126Z,13.65
2022-12-18T09:09:25.682Z,12.77
2022-12-18T09:11:52.180Z,8.68
2022-12-18T09:14:18.669Z,7.82
2022-12-18T09:16:45.166Z,7.60
2022-12-18T09:19:11.907Z,5.60
2022-12-18T09:21:46.121Z,7.75
2022-12-18T09:24:15.499Z,6.57
2022-12-18T09:26:43.490Z,4.90
2022-12-18T09:31:40.475Z,6.20
2022-12-18T09:34:07.472Z,5.50
2022-12-18T09:36:34.174Z,5.65
2022-12-18T09:39:03.847Z,5.25
2022-12-18T09:41:54.719Z,4.70
2022-12-18T09:44:26.485Z,6.35
2022-12-18T09:49:35.975Z,11.35
2022-12-18T09:52:38.449Z,10.70
2022-12-18T09:55:23.921Z,19.60
2022-12-18T09:57:55.936Z,16.92
2022-12-18T10:00:24.623Z,18.77
2022-12-18T10:02:55.568Z,16.40
2022-12-18T10:05:37.437Z,16.98
2022-12-18T10:11:02.434Z,15.57
2022-12-18T10:13:41.055Z,16.02
2022-12-18T10:16:18.777Z,17.33
2022-12-18T10:19:16.266Z,16.60
2022-12-18T10:22:15.171Z,14.50
2022-12-18T10:25:06.259Z,14.35
2022-12-18T10:27:33.569Z,15.20
2022-12-18T10:30:02.160Z,12.35
2022-12-18T10:32:31.480Z,9.07
2022-12-18T10:35:00.813Z,12.10
2022-12-18T10:37:29.922Z,9.05
2022-12-18T10:40:22.311Z,6.75
2022-12-18T10:43:05.090Z,14.48
2022-12-18T10:45:31.578Z,5.72
2022-12-18T10:47:59.016Z,11.95
2022-12-18T10:50:47.176Z,13.95
2022-12-18T10:55:48.330Z,17.20
2022-12-18T10:58:26.578Z,13.63
2022-12-18T11:01:22.786Z,9.27
2022-12-18T11:04:00.330Z,14.85
2022-12-18T11:06:29.038Z,12.43
2022-12-18T11:09:13.359Z,23.38
2022-12-18T11:11:41.753Z,22.77
2022-12-18T11:14:20.025Z,27.60
2022-12-18T11:19:40.682Z,25.02
2022-12-18T11:22:29.624Z,28.35
2022-12-18T11:25:32.133Z,26.63
2022-12-18T11:28:00.430Z,31.50
2022-12-18T11:30:28.908Z,36.72
2022-12-18T11:33:01.945Z,33.95
2022-12-18T11:35:38.871Z,32.60
2022-12-18T11:38:20.261Z,36.53
2022-12-18T11:40:52.622Z,21.00
2022-12-18T11:43:31.491Z,31.38
2022-12-18T11:46:06.336Z,27.38
2022-12-18T11:48:46.056Z,33.78
2022-12-18T11:51:24.942Z,25.33
2022-12-18T11:53:53.603Z,24.60
2022-12-18T11:56:40.246Z,26.33
2022-12-18T11:59:23.420Z,25.88
2022-12-18T12:01:54.607Z,21.85
2022-12-18T12:04:33.162Z,28.10
2022-12-18T12:07:03.127Z,23.13
2022-12-18T12:09:58.750Z,28.27
2022-12-18T12:12:49.394Z,29.20
2022-12-18T12:15:26.843Z,25.80
2022-12-18T12:18:38.999Z,27.50
2022-12-18T12:21:23.632Z,34.38
2022-12-18T12:24:21.558Z,30.67
2022-12-18T12:27:24.099Z,25.95
2022-12-18T12:30:08.455Z,30.52
2022-12-18T12:32:45.662Z,23.83
2022-12-18T12:35:53.782Z,24.52
2022-12-18T12:38:36.491Z,22.17
2022-12-18T12:41:06.630Z,26.40
2022-12-18T12:43:50.427Z,24.20
2022-12-18T12:46:22.378Z,28.88
2022-12-18T12:48:49.138Z,29.42
2022-12-18T12:51:22.772Z,27.02
2022-12-18T12:53:50.997Z,22.25
2022-12-18T12:56:20.252Z,27.77
2022-12-18T12:58:50.335Z,30.85
2022-12-18T13:01:42.077Z,26.60
2022-12-18T13:04:32.522Z,25.05
2022-12-18T13:07:07.866Z,31.05
2022-12-18T13:09:36.826Z,29.90
2022-12-18T13:12:30.608Z,31.83
2022-12-18T13:15:22.625Z,29.13
2022-12-18T13:17:49.513Z,29.52
2022-12-18T13:20:19.302Z,37.67
2022-12-18T13:22:48.728Z,34.85
2022-12-18T13:25:34.730Z,35.75
2022-12-18T13:28:02.725Z,34.22
2022-12-18T13:30:32.564Z,33.15
2022-12-18T13:33:14.241Z,33.55
2022-12-18T13:38:31.536Z,38.20
2022-12-18T13:41:26.465Z,36.55
2022-12-18T13:44:00.286Z,35.58
2022-12-18T13:46:28.723Z,43.45
2022-12-18T13:49:06.356Z,38.63
2022-12-18T13:51:36.101Z,40.85
2022-12-18T13:54:21.376Z,32.72
2022-12-18T13:56:52.257Z,34.65
2022-12-18T13:59:22.270Z,41.10
2022-12-18T14:01:57.861Z,34.15
2022-12-18T14:04:24.950Z,36.30
2022-12-18T14:06:56.262Z,38.92
2022-12-18T14:09:30.437Z,37.17
2022-12-18T14:12:19.740Z,37.63
2022-12-18T14:14:49.152Z,35.15
2022-12-18T14:19:50.869Z,42.97
2022-12-18T14:22:21.145Z,43.38
2022-12-18T14:25:05.358Z,49.25
2022-12-18T14:27:31.843Z,43.65
2022-12-18T14:29:59.196Z,42.63
2022-12-18T14:32:32.740Z,47.63
2022-12-18T14:34:59.794Z,40.03
2022-12-18T14:37:28.006Z,39.05
2022-12-18T14:40:02.172Z,42.22
2022-12-18T14:42:31.408Z,40.47
2022-12-18T14:45:43.170Z,39.70
2022-12-18T14:48:20.706Z,41.58
2022-12-18T14:50:59.422Z,41.00
2022-12-18T14:53:42.263Z,42.80
2022-12-18T14:56:24.815Z,45.58
2022-12-18T14:58:57.805Z,47.10
2022-12-18T15:01:52.512Z,48.17
2022-12-18T15:04:27.252Z,46.22
2022-12-18T15:07:18.755Z,42.67
2022-12-18T15:12:38.217Z,52.15
2022-12-18T15:15:06.566Z,49.83
2022-12-18T15:17:33.140Z,53.67
2022-12-18T15:20:10.052Z,49.28
2022-12-18T15:22:39.731Z,54.00
2022-12-18T15:25:32.434Z,49.30
2022-12-18T15:27:59.135Z,51.92
2022-12-18T15:30:26.464Z,48.47
2022-12-18T15:33:18.401Z,47.63
2022-12-18T15:35:47.153Z,45.65
2022-12-18T15:38:13.856Z,55.13
2022-12-18T15:40:40.416Z,48.45
2022-12-18T15:43:27.895Z,52.15
2022-12-18T15:45:54.420Z,85.53
2022-12-18T15:48:24.640Z,64.38
2022-12-18T15:50:52.903Z,53.08
2022-12-18T15:53:19.967Z,51.25
2022-12-18T15:56:05.090Z,45.10
2022-12-18T15:58:31.577Z,50.35
2022-12-18T16:01:00.497Z,45.22
2022-12-18T16:03:27.301Z,48.03
2022-12-18T16:05:53.981Z,60.72
2022-12-18T16:08:20.768Z,53.88
2022-12-18T16:10:47.358Z,60.72
2022-12-18T16:13:19.227Z,65.97
2022-12-18T16:15:45.809Z,66.00
2022-12-18T16:18:12.289Z,67.70
2022-12-18T16:20:39.621Z,63.30
2022-12-18T16:23:06.066Z,59.05
2022-12-18T16:25:32.960Z,59.45
2022-12-18T16:27:59.568Z,48.25
2022-12-18T16:30:33.089Z,52.85
2022-12-18T16:33:05.782Z,49.22
2022-12-18T16:35:33.964Z,46.00
2022-12-18T16:38:00.720Z,48.38
2022-12-18T16:40:27.242Z,44.10
2022-12-18T16:42:53.814Z,43.88
2022-12-18T16:45:20.429Z,43.38
2022-12-18T16:47:46.936Z,44.20
2022-12-18T16:50:16.242Z,30.92
2022-12-18T16:52:42.815Z,40.65
2022-12-18T16:55:09.609Z,35.17
2022-12-18T16:57:36.112Z,32.95
2022-12-18T17:00:05.825Z,36.10
2022-12-18T17:02:32.814Z,32.72
2022-12-18T17:04:59.726Z,38.55
2022-12-18T17:07:27.137Z,31.52
2022-12-18T17:09:54.414Z,35.75
2022-12-18T17:12:21.228Z,35.63
2022-12-18T17:14:47.761Z,34.08
2022-12-18T17:17:23.036Z,32.80
2022-12-18T17:19:51.194Z,33.78
2022-12-18T17:22:17.837Z,35.88
2022-12-18T17:24:44.322Z,32.53
2022-12-18T17:27:10.888Z,35.08
2022-12-18T17:29:40.114Z,32.85
2022-12-18T17:32:10.383Z,37.40
2022-12-18T17:34:37.633Z,30.08
2022-12-18T17:37:04.153Z,27.77
2022-12-18T17:39:30.835Z,29.13
2022-12-18T17:41:59.420Z,27.65
2022-12-18T17:44:25.855Z,27.98
2022-12-18T17:46:52.476Z,28.02
2022-12-18T17:49:22.220Z,26.95
2022-12-18T17:51:49.044Z,31.17
2022-12-18T17:54:15.715Z,30.75
2022-12-18T17:56:42.518Z,29.77
2022-12-18T17:59:09.493Z,35.40
2022-12-18T18:01:42.427Z,30.73
2022-12-18T18:04:10.986Z,32.92
2022-12-18T18:06:38.860Z,34.78
2022-12-18T18:09:06.063Z,37.95
2022-12-18T18:11:53.222Z,33.97
2022-12-18T18:14:21.863Z,33.35
2022-12-18T18:16:54.059Z,33.90
2022-12-18T18:19:24.472Z,32.47
2022-12-18T18:21:53.217Z,33.58
2022-12-18T18:24:23.591Z,35.17
2022-12-18T18:26:50.782Z,34.63
2022-12-18T18:29:20.237Z,34.67
2022-12-18T18:31:47.692Z,34.42
2022-12-18T18:34:21.035Z,40.60
2022-12-18T18:36:47.620Z,51.03
2022-12-18T18:39:17.677Z,34.45
2022-12-18T18:41:47.205Z,38.63
2022-12-18T18:44:15.800Z,39.30
2022-12-18T18:46:42.285Z,36.15
2022-12-18T18:49:09.547Z,38.17
2022-12-18T18:51:36.035Z,40.38
2022-12-18T18:54:02.992Z,33.30
2022-12-18T18:59:16.947Z,37.55
2022-12-18T19:01:44.094Z,33.67
2022-12-18T19:04:10.781Z,33.17
2022-12-18T19:06:37.383Z,32.25
2022-12-18T19:09:06.462Z,36.72
2022-12-18T19:11:51.745Z,33.38
2022-12-18T19:14:18.778Z,28.15
2022-12-18T19:16:45.754Z,29.90
2022-12-18T19:19:13.285Z,33.83
2022-12-18T19:21:39.963Z,37.60
2022-12-18T19:24:06.752Z,35.40
2022-12-18T19:26:33.410Z,42.75
2022-12-18T19:29:07.618Z,37.13
2022-12-18T19:31:36.746Z,33.80
2022-12-18T19:34:06.595Z,53.95
2022-12-18T19:36:36.158Z,58.08
2022-12-18T19:39:17.523Z,49.42
2022-12-18T19:41:44.593Z,41.15
2022-12-18T19:44:13.076Z,37.10
2022-12-18T19:46:41.706Z,35.15
2022-12-18T19:49:21.167Z,34.25
2022-12-18T19:51:47.652Z,32.08
2022-12-18T19:54:17.740Z,30.95
2022-12-18T19:56:49.214Z,32.33
2022-12-18T19:59:15.838Z,29.73
2022-12-18T20:01:42.429Z,30.85
2022-12-18T20:04:09.182Z,35.97
2022-12-18T20:06:47.024Z,30.63
2022-12-18T20:09:13.650Z,42.10
2022-12-18T20:11:41.930Z,28.88
2022-12-18T20:14:12.869Z,22.75
2022-12-18T20:16:39.887Z,25.25
2022-12-18T20:19:07.084Z,37.33
2022-12-18T20:21:33.984Z,21.83
2022-12-18T20:24:01.935Z,25.10
2022-12-18T20:26:28.658Z,26.85
2022-12-18T20:28:55.935Z,21.80
2022-12-18T20:31:24.133Z,22.48
2022-12-18T20:33:51.028Z,20.38
2022-12-18T20:36:22.379Z,21.75
2022-12-18T20:38:51.099Z,23.52
2022-12-18T20:41:20.133Z,24.75
2022-12-18T20:43:47.592Z,17.33
2022-12-18T20:46:16.108Z,20.70
2022-12-18T20:48:43.624Z,20.30
2022-12-18T20:51:15.703Z,20.63
2022-12-18T20:53:42.945Z,19.98
2022-12-18T20:56:17.765Z,13.13
2022-12-18T20:58:54.807Z,15.80
2022-12-18T21:01:22.937Z,15.43
2022-12-18T21:03:50.518Z,11.80
2022-12-18T21:06:22.113Z,14.27
2022-12-18T21:08:49.205Z,18.23
2022-12-18T21:11:40.532Z,21.20
2022-12-18T21:14:11.321Z,26.15
2022-12-18T21:16:38.093Z,23.15
2022-12-18T21:19:04.591Z,20.35
2022-12-18T21:21:33.277Z,24.63
2022-12-18T21:24:05.784Z,15.77
2022-12-18T21:26:32.341Z,14.23
2022-12-18T21:29:00.897Z,6.68
2022-12-18T21:31:30.675Z,9.15
2022-12-18T21:34:02.140Z,13.25
2022-12-18T21:38:57.160Z,9.05
2022-12-18T21:41:47.111Z,11.70
2022-12-18T21:44:16.451Z,6.82
2022-12-18T21:46:51.518Z,7.47
2022-12-18T21:49:22.458Z,6.80
2022-12-18T21:51:50.954Z,6.78
2022-12-18T21:54:21.514Z,6.93
2022-12-18T21:56:55.096Z,6.80
2022-12-18T21:59:27.255Z,10.32
2022-12-18T22:01:56.144Z,11.15
2022-12-18T22:04:24.805Z,12.48
2022-12-18T22:06:52.764Z,13.85
2022-12-18T22:09:24.326Z,10.82
2022-12-18T22:11:52.243Z,10.88
2022-12-18T22:14:19.317Z,8.98
2022-12-18T22:16:46.442Z,9.38
2022-12-18T22:19:14.830Z,8.63
2022-12-18T22:21:43.757Z,9.88
2022-12-18T22:24:20.056Z,8.57
2022-12-18T22:26:51.278Z,8.25
2022-12-18T22:29:41.200Z,9.25
2022-12-18T22:32:12.905Z,8.68
2022-12-18T22:34:41.591Z,10.10
2022-12-18T22:37:10.437Z,11.35
2022-12-18T22:39:36.981Z,8.68
2022-12-18T22:42:03.840Z,13.55
2022-12-18T22:44:30.346Z,10.50
2022-12-18T22:47:05.646Z,12.25
2022-12-18T22:49:35.374Z,13.23
2022-12-18T22:52:03.891Z,11.90
2022-12-18T22:54:30.940Z,12.32
2022-12-18T22:56:57.632Z,13.32
2022-12-18T22:59:24.365Z,10.15
2022-12-18T23:01:58.348Z,9.00
2022-12-18T23:04:29.311Z,10.00
2022-12-18T23:07:06.348Z,10.30
2022-12-18T23:09:36.006Z,8.55
2022-12-18T23:12:05.582Z,9.48
2022-12-18T23:14:33.838Z,9.50
2022-12-18T23:17:00.328Z,11.90
2022-12-18T23:19:26.884Z,10.60
2022-12-18T23:21:54.864Z,10.23
2022-12-18T23:24:25.300Z,10.63
2022-12-18T23:26:53.059Z,10.20
2022-12-18T23:29:19.665Z,9.65
2022-12-18T23:31:46.554Z,11.73
2022-12-18T23:34:14.592Z,9.77
2022-12-18T23:36:45.541Z,10.90
2022-12-18T23:39:15.397Z,12.70
2022-12-18T23:41:58.936Z,11.05
2022-12-18T23:44:25.814Z,9.15
2022-12-18T23:46:52.788Z,8.82
2022-12-18T23:49:19.396Z,9.38
2022-12-18T23:51:45.861Z,10.93
2022-12-18T23:54:12.853Z,10.02
2022-12-18T23:56:42.245Z,12.15
2022-12-18T23:59:08.867Z,10.15
